ADDS TAF Board (Experimental) INFO Settings
IDs:

KMCI - Kansas City Intl, MO, US

Issued at 2320 UTC 30 Jul 2015
Updated at: 0511 UTC 31 Jul 2015
Time0453Z 31/06Z 31/07Z 31/08Z 31/09Z 31/10Z 31/11Z 31/12Z 31/13Z 31/14Z 31/15Z 31/16Z 31/17Z 31/18Z
Type OBS PRVL PRVL PRVL PRVL PRVL PRVL PRVL PRVL PRVL PRVL PRVL PRVL PRVL
VIS 10 >6 >6 >6 >6 >6 >6 >6 >6 >6 >6 >6 >6 >6
CIG -- -- -- -- -- -- -- -- -- -- -- -- -- --
Cover SCT SCT SCT SCT SCT SCT SCT SCT SCT SCT SCT SCT SCT SCT
FltCat VFR VFR VFR VFR VFR VFR VFR VFR VFR VFR VFR VFR VFR VFR
WX -- -- -- -- -- -- -- -- -- -- -- -- -- --
WDir VRB 220 220 220 220 220 220 220 220 220 220 220 220 230
WSpd 0 5 5 5 5 5 5 5 5 5 5 5 5 5
WGst -- -- -- -- -- -- -- -- -- -- -- -- -- --
R01/19
XWnd VRB 2 2 2 2 2 2 2 2 2 2 2 2 3
HWnd VRB -4 -4 -4 -4 -4 -4 -4 -4 -4 -4 -4 -4 -4
R09/27
XWnd VRB -4 -4 -4 -4 -4 -4 -4 -4 -4 -4 -4 -4 -4
HWnd VRB -3 -3 -3 -3 -3 -3 -3 -3 -3 -3 -3 -3 -3

NOTE: TEMPO conditions in [brackets]. Keep in mind TEMPO conditions might be better (lower impact) than prevailing conditions.

Raw TAF
KMCI 302320Z 3100/3124 22005KT P6SM SCT250
  FM311800 23005KT P6SM SCT060


Raw METAR
KMCI 310453Z 00000KT 10SM SCT250 23/17 A3017 RMK AO2 SLP205 T02330167 $
KMCI 310353Z 00000KT 10SM CLR 25/16 A3016 RMK AO2 SLP203 T02500161 $
KMCI 310253Z 00000KT 10SM FEW250 24/16 A3015 RMK AO2 SLP200 T02440156 53005 $

METAR Board
Radar Display
Forecast Discussion

TAF Board Legend

Potential Impact
Threat None Slight Moderate High
Visibility (sm) ≥5.1 5.1>X≥3 3>X≥1 <1
Ceiling (100 ft) ≥30.1 30.1>X≥10 10>X≥5 <5
Wind Speed (kt) <10 10≤X<20 20≤X<30 ≥30
Wind Gust (kt) <15 15≤X<25 25≤X<35 ≥35
Weather No Wx Reported VCTS,-TS,-FZRA,SN TS,FZRA +TS,+FZRA,+SN